sensor_id;sensor_type;location;lat;lon;timestamp;P1;durP1;ratioP1;P2;durP2;ratioP2
25111;SDS011;13092;51.996;4.458;2022-09-13T00:00:56;31.98;;;29.55;;
25111;SDS011;13092;51.996;4.458;2022-09-13T00:03:25;32.67;;;30.00;;
25111;SDS011;13092;51.996;4.458;2022-09-13T00:05:53;36.45;;;33.55;;
25111;SDS011;13092;51.996;4.458;2022-09-13T00:08:21;34.85;;;32.22;;
25111;SDS011;13092;51.996;4.458;2022-09-13T00:10:50;40.03;;;37.10;;
25111;SDS011;13092;51.996;4.458;2022-09-13T00:13:18;39.03;;;36.05;;
25111;SDS011;13092;51.996;4.458;2022-09-13T00:15:47;41.95;;;38.75;;
25111;SDS011;13092;51.996;4.458;2022-09-13T00:18:17;39.05;;;35.80;;
25111;SDS011;13092;51.996;4.458;2022-09-13T00:20:45;39.40;;;36.50;;
25111;SDS011;13092;51.996;4.458;2022-09-13T00:23:13;40.95;;;37.88;;
25111;SDS011;13092;51.996;4.458;2022-09-13T00:25:41;40.05;;;37.15;;
25111;SDS011;13092;51.996;4.458;2022-09-13T00:28:09;38.80;;;36.00;;
25111;SDS011;13092;51.996;4.458;2022-09-13T00:30:46;36.15;;;33.47;;
25111;SDS011;13092;51.996;4.458;2022-09-13T00:33:14;37.65;;;34.95;;
25111;SDS011;13092;51.996;4.458;2022-09-13T00:35:43;36.72;;;33.97;;
25111;SDS011;13092;51.996;4.458;2022-09-13T00:38:11;33.65;;;31.05;;
25111;SDS011;13092;51.996;4.458;2022-09-13T00:40:39;30.40;;;28.05;;
25111;SDS011;13092;51.996;4.458;2022-09-13T00:43:09;27.15;;;25.10;;
25111;SDS011;13092;51.996;4.458;2022-09-13T00:45:42;25.95;;;23.92;;
25111;SDS011;13092;51.996;4.458;2022-09-13T00:48:13;31.80;;;29.33;;
25111;SDS011;13092;51.996;4.458;2022-09-13T00:50:47;32.08;;;29.77;;
25111;SDS011;13092;51.996;4.458;2022-09-13T00:53:20;32.47;;;29.70;;
25111;SDS011;13092;51.996;4.458;2022-09-13T00:55:53;31.60;;;29.10;;
25111;SDS011;13092;51.996;4.458;2022-09-13T00:58:24;31.90;;;29.50;;
25111;SDS011;13092;51.996;4.458;2022-09-13T01:00:57;31.55;;;28.70;;
25111;SDS011;13092;51.996;4.458;2022-09-13T01:03:26;32.30;;;30.00;;
25111;SDS011;13092;51.996;4.458;2022-09-13T01:05:59;32.80;;;30.30;;
25111;SDS011;13092;51.996;4.458;2022-09-13T01:08:32;29.40;;;27.15;;
25111;SDS011;13092;51.996;4.458;2022-09-13T01:11:03;29.90;;;27.63;;
25111;SDS011;13092;51.996;4.458;2022-09-13T01:13:33;32.05;;;29.67;;
25111;SDS011;13092;51.996;4.458;2022-09-13T01:16:02;37.08;;;33.92;;
25111;SDS011;13092;51.996;4.458;2022-09-13T01:18:30;34.05;;;31.30;;
25111;SDS011;13092;51.996;4.458;2022-09-13T01:21:07;33.42;;;30.92;;
25111;SDS011;13092;51.996;4.458;2022-09-13T01:24:02;33.53;;;31.23;;
25111;SDS011;13092;51.996;4.458;2022-09-13T01:26:52;34.90;;;32.40;;
25111;SDS011;13092;51.996;4.458;2022-09-13T01:32:37;34.80;;;32.28;;
25111;SDS011;13092;51.996;4.458;2022-09-13T01:35:13;36.38;;;33.75;;
25111;SDS011;13092;51.996;4.458;2022-09-13T01:37:50;40.20;;;37.35;;
25111;SDS011;13092;51.996;4.458;2022-09-13T01:40:31;39.65;;;36.65;;
25111;SDS011;13092;51.996;4.458;2022-09-13T01:43:18;39.53;;;36.70;;
25111;SDS011;13092;51.996;4.458;2022-09-13T01:45:55;40.05;;;36.97;;
25111;SDS011;13092;51.996;4.458;2022-09-13T01:48:35;41.53;;;38.42;;
25111;SDS011;13092;51.996;4.458;2022-09-13T01:51:15;41.58;;;38.15;;
25111;SDS011;13092;51.996;4.458;2022-09-13T01:53:51;39.53;;;36.60;;
25111;SDS011;13092;51.996;4.458;2022-09-13T01:56:26;38.65;;;35.90;;
25111;SDS011;13092;51.996;4.458;2022-09-13T01:59:00;38.95;;;36.15;;
25111;SDS011;13092;51.996;4.458;2022-09-13T02:01:32;38.15;;;35.45;;
25111;SDS011;13092;51.996;4.458;2022-09-13T02:04:06;39.00;;;36.17;;
25111;SDS011;13092;51.996;4.458;2022-09-13T02:06:39;38.53;;;35.72;;
25111;SDS011;13092;51.996;4.458;2022-09-13T02:09:12;37.60;;;34.90;;
25111;SDS011;13092;51.996;4.458;2022-09-13T02:11:47;40.85;;;37.65;;
25111;SDS011;13092;51.996;4.458;2022-09-13T02:14:20;40.90;;;37.83;;
25111;SDS011;13092;51.996;4.458;2022-09-13T02:16:51;39.33;;;36.47;;
25111;SDS011;13092;51.996;4.458;2022-09-13T02:19:26;38.70;;;35.90;;
25111;SDS011;13092;51.996;4.458;2022-09-13T02:22:00;40.08;;;37.13;;
25111;SDS011;13092;51.996;4.458;2022-09-13T02:24:33;37.63;;;34.75;;
25111;SDS011;13092;51.996;4.458;2022-09-13T02:27:04;40.40;;;37.40;;
25111;SDS011;13092;51.996;4.458;2022-09-13T02:29:35;37.63;;;34.83;;
25111;SDS011;13092;51.996;4.458;2022-09-13T02:32:08;38.13;;;35.33;;
25111;SDS011;13092;51.996;4.458;2022-09-13T02:34:40;36.25;;;33.63;;
25111;SDS011;13092;51.996;4.458;2022-09-13T02:37:11;36.75;;;34.03;;
25111;SDS011;13092;51.996;4.458;2022-09-13T02:39:46;38.75;;;35.95;;
25111;SDS011;13092;51.996;4.458;2022-09-13T02:42:18;36.22;;;33.53;;
25111;SDS011;13092;51.996;4.458;2022-09-13T02:44:48;35.20;;;32.80;;
25111;SDS011;13092;51.996;4.458;2022-09-13T02:47:25;36.33;;;33.53;;
25111;SDS011;13092;51.996;4.458;2022-09-13T02:50:06;36.97;;;34.28;;
25111;SDS011;13092;51.996;4.458;2022-09-13T02:52:47;36.40;;;33.60;;
25111;SDS011;13092;51.996;4.458;2022-09-13T02:55:20;35.33;;;32.75;;
25111;SDS011;13092;51.996;4.458;2022-09-13T02:57:54;35.00;;;32.33;;
25111;SDS011;13092;51.996;4.458;2022-09-13T03:00:27;35.38;;;32.78;;
25111;SDS011;13092;51.996;4.458;2022-09-13T03:02:57;38.83;;;36.13;;
25111;SDS011;13092;51.996;4.458;2022-09-13T03:05:30;39.00;;;36.20;;
25111;SDS011;13092;51.996;4.458;2022-09-13T03:07:58;38.40;;;35.60;;
25111;SDS011;13092;51.996;4.458;2022-09-13T03:10:29;38.78;;;35.88;;
25111;SDS011;13092;51.996;4.458;2022-09-13T03:13:18;39.08;;;36.13;;
25111;SDS011;13092;51.996;4.458;2022-09-13T03:16:05;40.67;;;37.67;;
25111;SDS011;13092;51.996;4.458;2022-09-13T03:18:50;37.88;;;35.05;;
25111;SDS011;13092;51.996;4.458;2022-09-13T03:21:31;38.60;;;35.83;;
25111;SDS011;13092;51.996;4.458;2022-09-13T03:24:16;37.47;;;34.58;;
25111;SDS011;13092;51.996;4.458;2022-09-13T03:26:53;37.22;;;34.33;;
25111;SDS011;13092;51.996;4.458;2022-09-13T03:29:32;38.55;;;35.47;;
25111;SDS011;13092;51.996;4.458;2022-09-13T03:32:14;39.22;;;36.20;;
25111;SDS011;13092;51.996;4.458;2022-09-13T03:34:47;39.22;;;36.03;;
25111;SDS011;13092;51.996;4.458;2022-09-13T03:37:23;38.80;;;35.90;;
25111;SDS011;13092;51.996;4.458;2022-09-13T03:39:55;39.17;;;36.20;;
25111;SDS011;13092;51.996;4.458;2022-09-13T03:42:27;36.38;;;33.72;;
25111;SDS011;13092;51.996;4.458;2022-09-13T03:45:01;38.95;;;35.95;;
25111;SDS011;13092;51.996;4.458;2022-09-13T03:47:31;37.15;;;34.17;;
25111;SDS011;13092;51.996;4.458;2022-09-13T03:50:01;37.08;;;34.28;;
25111;SDS011;13092;51.996;4.458;2022-09-13T03:52:32;36.72;;;33.92;;
25111;SDS011;13092;51.996;4.458;2022-09-13T03:55:01;36.42;;;33.75;;
25111;SDS011;13092;51.996;4.458;2022-09-13T03:57:29;38.10;;;35.33;;
25111;SDS011;13092;51.996;4.458;2022-09-13T03:59:57;38.45;;;35.55;;
25111;SDS011;13092;51.996;4.458;2022-09-13T04:02:25;38.92;;;35.97;;
25111;SDS011;13092;51.996;4.458;2022-09-13T04:04:54;38.55;;;35.65;;
25111;SDS011;13092;51.996;4.458;2022-09-13T04:07:23;37.65;;;34.80;;
25111;SDS011;13092;51.996;4.458;2022-09-13T04:09:53;39.00;;;35.88;;
25111;SDS011;13092;51.996;4.458;2022-09-13T04:12:21;37.78;;;34.88;;
25111;SDS011;13092;51.996;4.458;2022-09-13T04:14:49;39.03;;;36.05;;
25111;SDS011;13092;51.996;4.458;2022-09-13T04:17:17;39.05;;;36.22;;
25111;SDS011;13092;51.996;4.458;2022-09-13T04:19:45;39.45;;;36.55;;
25111;SDS011;13092;51.996;4.458;2022-09-13T04:22:13;41.58;;;38.53;;
25111;SDS011;13092;51.996;4.458;2022-09-13T04:24:42;39.17;;;36.17;;
25111;SDS011;13092;51.996;4.458;2022-09-13T04:27:11;41.78;;;38.63;;
25111;SDS011;13092;51.996;4.458;2022-09-13T04:29:39;41.80;;;38.50;;
25111;SDS011;13092;51.996;4.458;2022-09-13T04:32:07;43.13;;;39.83;;
25111;SDS011;13092;51.996;4.458;2022-09-13T04:34:36;42.95;;;39.42;;
25111;SDS011;13092;51.996;4.458;2022-09-13T04:37:04;44.33;;;40.50;;
25111;SDS011;13092;51.996;4.458;2022-09-13T04:39:32;42.33;;;39.03;;
25111;SDS011;13092;51.996;4.458;2022-09-13T04:42:00;41.95;;;38.60;;
25111;SDS011;13092;51.996;4.458;2022-09-13T04:44:30;41.50;;;38.15;;
25111;SDS011;13092;51.996;4.458;2022-09-13T04:46:58;41.35;;;37.90;;
25111;SDS011;13092;51.996;4.458;2022-09-13T04:49:26;40.00;;;36.80;;
25111;SDS011;13092;51.996;4.458;2022-09-13T04:51:54;42.58;;;38.95;;
25111;SDS011;13092;51.996;4.458;2022-09-13T04:54:22;43.03;;;39.47;;
25111;SDS011;13092;51.996;4.458;2022-09-13T04:56:50;42.75;;;39.22;;
25111;SDS011;13092;51.996;4.458;2022-09-13T04:59:19;44.03;;;40.20;;
25111;SDS011;13092;51.996;4.458;2022-09-13T05:01:48;42.42;;;39.03;;
25111;SDS011;13092;51.996;4.458;2022-09-13T05:04:16;42.35;;;38.83;;
25111;SDS011;13092;51.996;4.458;2022-09-13T05:06:44;42.55;;;39.10;;
25111;SDS011;13092;51.996;4.458;2022-09-13T05:09:13;43.55;;;39.75;;
25111;SDS011;13092;51.996;4.458;2022-09-13T05:11:41;43.45;;;39.75;;
25111;SDS011;13092;51.996;4.458;2022-09-13T05:14:10;43.92;;;40.25;;
25111;SDS011;13092;51.996;4.458;2022-09-13T05:16:39;45.22;;;41.50;;
25111;SDS011;13092;51.996;4.458;2022-09-13T05:19:09;44.90;;;41.00;;
25111;SDS011;13092;51.996;4.458;2022-09-13T05:21:38;40.75;;;37.25;;
25111;SDS011;13092;51.996;4.458;2022-09-13T05:24:06;43.40;;;39.83;;
25111;SDS011;13092;51.996;4.458;2022-09-13T05:26:34;41.55;;;38.05;;
25111;SDS011;13092;51.996;4.458;2022-09-13T05:29:03;42.72;;;39.28;;
25111;SDS011;13092;51.996;4.458;2022-09-13T05:31:32;43.25;;;39.15;;
25111;SDS011;13092;51.996;4.458;2022-09-13T05:34:03;45.65;;;41.50;;
25111;SDS011;13092;51.996;4.458;2022-09-13T05:36:34;43.13;;;39.63;;
25111;SDS011;13092;51.996;4.458;2022-09-13T05:39:02;42.47;;;38.95;;
25111;SDS011;13092;51.996;4.458;2022-09-13T05:41:51;43.70;;;39.85;;
25111;SDS011;13092;51.996;4.458;2022-09-13T05:44:19;41.20;;;37.70;;
25111;SDS011;13092;51.996;4.458;2022-09-13T05:46:48;43.40;;;39.70;;
25111;SDS011;13092;51.996;4.458;2022-09-13T05:49:16;46.80;;;42.75;;
25111;SDS011;13092;51.996;4.458;2022-09-13T05:51:45;44.97;;;41.08;;
25111;SDS011;13092;51.996;4.458;2022-09-13T05:54:13;44.65;;;40.83;;
25111;SDS011;13092;51.996;4.458;2022-09-13T05:56:41;44.65;;;40.85;;
25111;SDS011;13092;51.996;4.458;2022-09-13T05:59:10;42.72;;;39.10;;
25111;SDS011;13092;51.996;4.458;2022-09-13T06:01:39;43.63;;;39.70;;
25111;SDS011;13092;51.996;4.458;2022-09-13T06:04:07;41.28;;;37.97;;
25111;SDS011;13092;51.996;4.458;2022-09-13T06:06:37;43.03;;;39.38;;
25111;SDS011;13092;51.996;4.458;2022-09-13T06:09:09;41.55;;;38.20;;
25111;SDS011;13092;51.996;4.458;2022-09-13T06:11:38;39.15;;;36.05;;
25111;SDS011;13092;51.996;4.458;2022-09-13T06:14:06;43.90;;;40.17;;
25111;SDS011;13092;51.996;4.458;2022-09-13T06:16:34;42.80;;;39.13;;
25111;SDS011;13092;51.996;4.458;2022-09-13T06:19:03;42.70;;;39.00;;
25111;SDS011;13092;51.996;4.458;2022-09-13T06:21:31;42.47;;;38.90;;
25111;SDS011;13092;51.996;4.458;2022-09-13T06:23:59;43.03;;;39.40;;
25111;SDS011;13092;51.996;4.458;2022-09-13T06:26:28;43.03;;;39.40;;
25111;SDS011;13092;51.996;4.458;2022-09-13T06:28:57;42.22;;;38.72;;
25111;SDS011;13092;51.996;4.458;2022-09-13T06:31:26;42.92;;;39.42;;
25111;SDS011;13092;51.996;4.458;2022-09-13T06:33:55;40.28;;;36.97;;
25111;SDS011;13092;51.996;4.458;2022-09-13T06:36:24;40.20;;;37.00;;
25111;SDS011;13092;51.996;4.458;2022-09-13T06:38:53;41.58;;;37.78;;
25111;SDS011;13092;51.996;4.458;2022-09-13T06:41:22;36.95;;;33.95;;
25111;SDS011;13092;51.996;4.458;2022-09-13T06:43:55;36.28;;;33.47;;
25111;SDS011;13092;51.996;4.458;2022-09-13T06:46:24;34.20;;;31.42;;
25111;SDS011;13092;51.996;4.458;2022-09-13T06:48:53;34.53;;;31.70;;
25111;SDS011;13092;51.996;4.458;2022-09-13T06:51:23;31.20;;;28.80;;
25111;SDS011;13092;51.996;4.458;2022-09-13T06:53:52;30.52;;;28.23;;
25111;SDS011;13092;51.996;4.458;2022-09-13T06:56:22;27.55;;;25.65;;
25111;SDS011;13092;51.996;4.458;2022-09-13T06:58:53;27.55;;;25.52;;
25111;SDS011;13092;51.996;4.458;2022-09-13T07:01:25;27.05;;;25.02;;
25111;SDS011;13092;51.996;4.458;2022-09-13T07:03:56;24.45;;;22.77;;
25111;SDS011;13092;51.996;4.458;2022-09-13T07:06:26;25.95;;;24.15;;
25111;SDS011;13092;51.996;4.458;2022-09-13T07:08:56;26.35;;;24.15;;
25111;SDS011;13092;51.996;4.458;2022-09-13T07:11:28;25.83;;;24.02;;
25111;SDS011;13092;51.996;4.458;2022-09-13T07:13:58;25.52;;;23.75;;
25111;SDS011;13092;51.996;4.458;2022-09-13T07:16:27;25.02;;;23.33;;
25111;SDS011;13092;51.996;4.458;2022-09-13T07:18:57;23.58;;;22.08;;
25111;SDS011;13092;51.996;4.458;2022-09-13T07:21:26;23.77;;;22.17;;
25111;SDS011;13092;51.996;4.458;2022-09-13T07:23:55;22.00;;;20.35;;
25111;SDS011;13092;51.996;4.458;2022-09-13T07:26:24;22.63;;;20.73;;
25111;SDS011;13092;51.996;4.458;2022-09-13T07:28:54;25.10;;;23.00;;
25111;SDS011;13092;51.996;4.458;2022-09-13T07:31:25;26.23;;;24.42;;
25111;SDS011;13092;51.996;4.458;2022-09-13T07:33:55;25.98;;;24.20;;
25111;SDS011;13092;51.996;4.458;2022-09-13T07:36:25;27.63;;;25.48;;
25111;SDS011;13092;51.996;4.458;2022-09-13T07:38:54;26.70;;;24.83;;
25111;SDS011;13092;51.996;4.458;2022-09-13T07:41:24;27.45;;;24.98;;
25111;SDS011;13092;51.996;4.458;2022-09-13T07:43:55;25.85;;;23.85;;
25111;SDS011;13092;51.996;4.458;2022-09-13T07:46:25;25.42;;;23.52;;
25111;SDS011;13092;51.996;4.458;2022-09-13T07:48:58;24.60;;;22.90;;
25111;SDS011;13092;51.996;4.458;2022-09-13T07:51:31;24.25;;;22.65;;
25111;SDS011;13092;51.996;4.458;2022-09-13T07:54:00;24.67;;;22.75;;
25111;SDS011;13092;51.996;4.458;2022-09-13T07:56:30;24.70;;;22.75;;
25111;SDS011;13092;51.996;4.458;2022-09-13T07:59:00;23.60;;;21.95;;
25111;SDS011;13092;51.996;4.458;2022-09-13T08:01:32;22.67;;;21.00;;
25111;SDS011;13092;51.996;4.458;2022-09-13T08:04:05;22.88;;;21.27;;
25111;SDS011;13092;51.996;4.458;2022-09-13T08:06:35;22.88;;;21.17;;
25111;SDS011;13092;51.996;4.458;2022-09-13T08:09:05;23.83;;;21.80;;
25111;SDS011;13092;51.996;4.458;2022-09-13T08:11:35;23.52;;;21.80;;
25111;SDS011;13092;51.996;4.458;2022-09-13T08:14:04;25.67;;;23.77;;
25111;SDS011;13092;51.996;4.458;2022-09-13T08:16:35;24.92;;;23.20;;
25111;SDS011;13092;51.996;4.458;2022-09-13T08:19:04;23.63;;;21.90;;
25111;SDS011;13092;51.996;4.458;2022-09-13T08:21:34;23.05;;;21.55;;
25111;SDS011;13092;51.996;4.458;2022-09-13T08:24:04;23.45;;;21.85;;
25111;SDS011;13092;51.996;4.458;2022-09-13T08:26:34;23.20;;;21.60;;
25111;SDS011;13092;51.996;4.458;2022-09-13T08:29:03;23.83;;;22.23;;
25111;SDS011;13092;51.996;4.458;2022-09-13T08:31:32;22.73;;;21.23;;
25111;SDS011;13092;51.996;4.458;2022-09-13T08:34:03;23.73;;;22.13;;
25111;SDS011;13092;51.996;4.458;2022-09-13T08:36:31;23.77;;;22.17;;
25111;SDS011;13092;51.996;4.458;2022-09-13T08:39:27;21.95;;;20.48;;
25111;SDS011;13092;51.996;4.458;2022-09-13T08:45:26;24.17;;;22.55;;
25111;SDS011;13092;51.996;4.458;2022-09-13T08:47:58;24.13;;;22.52;;
25111;SDS011;13092;51.996;4.458;2022-09-13T08:50:30;25.23;;;23.48;;
25111;SDS011;13092;51.996;4.458;2022-09-13T08:55:57;25.38;;;23.45;;
25111;SDS011;13092;51.996;4.458;2022-09-13T08:58:41;23.35;;;21.65;;
25111;SDS011;13092;51.996;4.458;2022-09-13T09:01:27;22.55;;;21.05;;
25111;SDS011;13092;51.996;4.458;2022-09-13T09:04:11;22.60;;;20.65;;
25111;SDS011;13092;51.996;4.458;2022-09-13T09:06:49;23.23;;;21.70;;
25111;SDS011;13092;51.996;4.458;2022-09-13T09:09:23;23.50;;;21.75;;
25111;SDS011;13092;51.996;4.458;2022-09-13T09:11:53;24.88;;;23.08;;
25111;SDS011;13092;51.996;4.458;2022-09-13T09:14:27;24.23;;;22.52;;
25111;SDS011;13092;51.996;4.458;2022-09-13T09:17:00;24.95;;;23.35;;
25111;SDS011;13092;51.996;4.458;2022-09-13T09:19:35;26.30;;;24.45;;
25111;SDS011;13092;51.996;4.458;2022-09-13T09:22:08;24.88;;;23.08;;
25111;SDS011;13092;51.996;4.458;2022-09-13T09:24:40;23.45;;;21.85;;
25111;SDS011;13092;51.996;4.458;2022-09-13T09:27:14;21.77;;;20.25;;
25111;SDS011;13092;51.996;4.458;2022-09-13T09:29:45;23.52;;;21.73;;
25111;SDS011;13092;51.996;4.458;2022-09-13T09:32:18;21.80;;;20.30;;
25111;SDS011;13092;51.996;4.458;2022-09-13T09:35:11;22.92;;;21.25;;
25111;SDS011;13092;51.996;4.458;2022-09-13T09:37:48;22.60;;;20.90;;
25111;SDS011;13092;51.996;4.458;2022-09-13T09:40:26;26.23;;;24.23;;
25111;SDS011;13092;51.996;4.458;2022-09-13T09:42:57;28.13;;;26.23;;
25111;SDS011;13092;51.996;4.458;2022-09-13T09:45:26;28.30;;;26.27;;
25111;SDS011;13092;51.996;4.458;2022-09-13T09:47:58;28.73;;;26.55;;
25111;SDS011;13092;51.996;4.458;2022-09-13T09:50:33;26.23;;;24.45;;
25111;SDS011;13092;51.996;4.458;2022-09-13T09:53:06;27.13;;;25.33;;
25111;SDS011;13092;51.996;4.458;2022-09-13T09:55:41;26.88;;;24.88;;
25111;SDS011;13092;51.996;4.458;2022-09-13T09:58:12;26.95;;;25.05;;
25111;SDS011;13092;51.996;4.458;2022-09-13T10:00:49;26.50;;;24.60;;
25111;SDS011;13092;51.996;4.458;2022-09-13T10:03:25;23.90;;;22.20;;
25111;SDS011;13092;51.996;4.458;2022-09-13T10:06:05;24.58;;;22.73;;
25111;SDS011;13092;51.996;4.458;2022-09-13T10:08:35;25.60;;;23.80;;
25111;SDS011;13092;51.996;4.458;2022-09-13T10:11:06;25.35;;;23.33;;
25111;SDS011;13092;51.996;4.458;2022-09-13T10:13:35;26.05;;;24.20;;
25111;SDS011;13092;51.996;4.458;2022-09-13T10:16:20;23.60;;;21.83;;
25111;SDS011;13092;51.996;4.458;2022-09-13T10:18:52;24.60;;;22.55;;
25111;SDS011;13092;51.996;4.458;2022-09-13T10:21:23;24.73;;;22.80;;
25111;SDS011;13092;51.996;4.458;2022-09-13T10:23:51;24.30;;;22.67;;
25111;SDS011;13092;51.996;4.458;2022-09-13T10:26:42;25.08;;;23.38;;
25111;SDS011;13092;51.996;4.458;2022-09-13T10:29:12;23.55;;;21.92;;
25111;SDS011;13092;51.996;4.458;2022-09-13T10:31:43;22.60;;;21.13;;
25111;SDS011;13092;51.996;4.458;2022-09-13T10:34:15;22.27;;;20.67;;
25111;SDS011;13092;51.996;4.458;2022-09-13T10:36:49;24.10;;;22.40;;
25111;SDS011;13092;51.996;4.458;2022-09-13T10:39:21;23.27;;;21.73;;
25111;SDS011;13092;51.996;4.458;2022-09-13T10:41:51;24.63;;;22.83;;
25111;SDS011;13092;51.996;4.458;2022-09-13T10:44:30;23.48;;;21.83;;
25111;SDS011;13092;51.996;4.458;2022-09-13T10:47:03;22.50;;;21.00;;
25111;SDS011;13092;51.996;4.458;2022-09-13T10:49:37;20.73;;;19.40;;
25111;SDS011;13092;51.996;4.458;2022-09-13T10:52:30;15.50;;;14.35;;
25111;SDS011;13092;51.996;4.458;2022-09-13T10:57:55;7.10;;;4.75;;
25111;SDS011;13092;51.996;4.458;2022-09-13T11:00:43;8.27;;;5.07;;
25111;SDS011;13092;51.996;4.458;2022-09-13T11:03:23;6.50;;;5.40;;
25111;SDS011;13092;51.996;4.458;2022-09-13T11:06:01;5.13;;;3.35;;
25111;SDS011;13092;51.996;4.458;2022-09-13T11:08:40;4.30;;;3.38;;
25111;SDS011;13092;51.996;4.458;2022-09-13T11:11:14;10.68;;;3.80;;
25111;SDS011;13092;51.996;4.458;2022-09-13T11:13:53;7.28;;;3.50;;
25111;SDS011;13092;51.996;4.458;2022-09-13T11:16:33;4.47;;;2.75;;
25111;SDS011;13092;51.996;4.458;2022-09-13T11:19:24;3.53;;;3.10;;
25111;SDS011;13092;51.996;4.458;2022-09-13T11:22:11;5.80;;;3.42;;
25111;SDS011;13092;51.996;4.458;2022-09-13T11:24:56;3.60;;;2.58;;
25111;SDS011;13092;51.996;4.458;2022-09-13T11:27:34;4.32;;;2.35;;
25111;SDS011;13092;51.996;4.458;2022-09-13T11:30:12;3.53;;;2.00;;
25111;SDS011;13092;51.996;4.458;2022-09-13T11:35:53;4.40;;;1.77;;
25111;SDS011;13092;51.996;4.458;2022-09-13T11:38:40;4.78;;;1.80;;
25111;SDS011;13092;51.996;4.458;2022-09-13T11:41:22;2.20;;;1.65;;
25111;SDS011;13092;51.996;4.458;2022-09-13T11:44:06;4.63;;;2.03;;
25111;SDS011;13092;51.996;4.458;2022-09-13T11:46:48;4.13;;;1.70;;
25111;SDS011;13092;51.996;4.458;2022-09-13T11:49:36;4.32;;;1.70;;
25111;SDS011;13092;51.996;4.458;2022-09-13T11:52:26;4.15;;;1.50;;
25111;SDS011;13092;51.996;4.458;2022-09-13T11:55:10;3.53;;;1.50;;
25111;SDS011;13092;51.996;4.458;2022-09-13T11:57:46;5.65;;;1.70;;
25111;SDS011;13092;51.996;4.458;2022-09-13T12:00:19;5.00;;;1.77;;
25111;SDS011;13092;51.996;4.458;2022-09-13T12:02:51;4.28;;;1.60;;
25111;SDS011;13092;51.996;4.458;2022-09-13T12:05:31;2.63;;;1.50;;
25111;SDS011;13092;51.996;4.458;2022-09-13T12:08:02;4.10;;;1.52;;
25111;SDS011;13092;51.996;4.458;2022-09-13T12:10:38;3.38;;;1.50;;
25111;SDS011;13092;51.996;4.458;2022-09-13T12:13:17;5.53;;;1.70;;
25111;SDS011;13092;51.996;4.458;2022-09-13T12:15:50;3.92;;;1.38;;
25111;SDS011;13092;51.996;4.458;2022-09-13T12:18:23;5.50;;;1.60;;
25111;SDS011;13092;51.996;4.458;2022-09-13T12:20:54;5.22;;;1.70;;
25111;SDS011;13092;51.996;4.458;2022-09-13T12:23:28;2.00;;;1.25;;
25111;SDS011;13092;51.996;4.458;2022-09-13T12:26:02;5.35;;;1.50;;
25111;SDS011;13092;51.996;4.458;2022-09-13T12:28:36;4.47;;;1.42;;
25111;SDS011;13092;51.996;4.458;2022-09-13T12:31:09;4.93;;;1.60;;
25111;SDS011;13092;51.996;4.458;2022-09-13T12:33:41;4.05;;;1.40;;
25111;SDS011;13092;51.996;4.458;2022-09-13T12:44:59;4.15;;;1.52;;
25111;SDS011;13092;51.996;4.458;2022-09-13T12:56:46;3.45;;;1.50;;
25111;SDS011;13092;51.996;4.458;2022-09-13T13:02:24;6.82;;;1.50;;
25111;SDS011;13092;51.996;4.458;2022-09-13T13:04:56;5.32;;;1.50;;
25111;SDS011;13092;51.996;4.458;2022-09-13T13:07:30;2.00;;;1.10;;
25111;SDS011;13092;51.996;4.458;2022-09-13T13:10:02;5.70;;;1.75;;
25111;SDS011;13092;51.996;4.458;2022-09-13T13:12:32;5.57;;;1.38;;
25111;SDS011;13092;51.996;4.458;2022-09-13T13:15:02;3.85;;;1.27;;
25111;SDS011;13092;51.996;4.458;2022-09-13T13:17:45;3.10;;;1.25;;
25111;SDS011;13092;51.996;4.458;2022-09-13T13:23:20;2.78;;;1.33;;
25111;SDS011;13092;51.996;4.458;2022-09-13T13:25:56;3.03;;;1.35;;
25111;SDS011;13092;51.996;4.458;2022-09-13T13:31:36;3.58;;;1.02;;
25111;SDS011;13092;51.996;4.458;2022-09-13T13:36:59;4.63;;;1.10;;
25111;SDS011;13092;51.996;4.458;2022-09-13T13:39:33;6.30;;;1.30;;
25111;SDS011;13092;51.996;4.458;2022-09-13T13:42:11;5.82;;;1.52;;
25111;SDS011;13092;51.996;4.458;2022-09-13T13:44:56;5.55;;;1.30;;
25111;SDS011;13092;51.996;4.458;2022-09-13T13:53:46;3.53;;;1.38;;
25111;SDS011;13092;51.996;4.458;2022-09-13T13:59:12;3.50;;;1.38;;
25111;SDS011;13092;51.996;4.458;2022-09-13T14:01:44;3.42;;;1.23;;
25111;SDS011;13092;51.996;4.458;2022-09-13T14:07:32;5.30;;;1.38;;
25111;SDS011;13092;51.996;4.458;2022-09-13T14:10:28;6.38;;;1.30;;
25111;SDS011;13092;51.996;4.458;2022-09-13T14:16:09;6.05;;;1.48;;
25111;SDS011;13092;51.996;4.458;2022-09-13T14:19:01;4.53;;;1.50;;
25111;SDS011;13092;51.996;4.458;2022-09-13T14:21:43;5.57;;;1.48;;
25111;SDS011;13092;51.996;4.458;2022-09-13T14:24:16;4.47;;;1.25;;
25111;SDS011;13092;51.996;4.458;2022-09-13T14:26:46;5.85;;;1.48;;
25111;SDS011;13092;51.996;4.458;2022-09-13T14:29:17;5.18;;;1.30;;
25111;SDS011;13092;51.996;4.458;2022-09-13T14:31:47;4.85;;;1.35;;
25111;SDS011;13092;51.996;4.458;2022-09-13T14:34:19;5.82;;;1.30;;
25111;SDS011;13092;51.996;4.458;2022-09-13T14:36:53;2.90;;;1.20;;
25111;SDS011;13092;51.996;4.458;2022-09-13T14:39:24;2.55;;;1.20;;
25111;SDS011;13092;51.996;4.458;2022-09-13T14:42:06;6.55;;;1.48;;
25111;SDS011;13092;51.996;4.458;2022-09-13T14:44:42;5.07;;;1.50;;
25111;SDS011;13092;51.996;4.458;2022-09-13T14:47:13;4.18;;;1.35;;
25111;SDS011;13092;51.996;4.458;2022-09-13T14:49:45;2.60;;;1.08;;
25111;SDS011;13092;51.996;4.458;2022-09-13T14:52:18;2.95;;;1.30;;
25111;SDS011;13092;51.996;4.458;2022-09-13T14:54:52;4.93;;;1.40;;
25111;SDS011;13092;51.996;4.458;2022-09-13T14:57:24;3.30;;;1.08;;
25111;SDS011;13092;51.996;4.458;2022-09-13T14:59:55;4.82;;;1.30;;
25111;SDS011;13092;51.996;4.458;2022-09-13T15:02:28;6.03;;;1.60;;
25111;SDS011;13092;51.996;4.458;2022-09-13T15:04:58;5.20;;;1.23;;
25111;SDS011;13092;51.996;4.458;2022-09-13T15:07:28;5.70;;;1.23;;
25111;SDS011;13092;51.996;4.458;2022-09-13T15:10:04;7.05;;;1.70;;
25111;SDS011;13092;51.996;4.458;2022-09-13T15:12:35;8.48;;;1.45;;
25111;SDS011;13092;51.996;4.458;2022-09-13T15:15:20;6.85;;;1.67;;
25111;SDS011;13092;51.996;4.458;2022-09-13T15:17:58;3.33;;;1.30;;
25111;SDS011;13092;51.996;4.458;2022-09-13T15:20:28;6.57;;;1.40;;
25111;SDS011;13092;51.996;4.458;2022-09-13T15:23:12;6.43;;;1.60;;
25111;SDS011;13092;51.996;4.458;2022-09-13T15:25:47;4.95;;;1.50;;
25111;SDS011;13092;51.996;4.458;2022-09-13T15:28:22;5.68;;;1.20;;
25111;SDS011;13092;51.996;4.458;2022-09-13T15:30:52;3.15;;;1.30;;
25111;SDS011;13092;51.996;4.458;2022-09-13T15:33:23;8.25;;;1.42;;
25111;SDS011;13092;51.996;4.458;2022-09-13T15:38:54;4.70;;;1.10;;
25111;SDS011;13092;51.996;4.458;2022-09-13T15:41:28;6.45;;;1.40;;
25111;SDS011;13092;51.996;4.458;2022-09-13T15:43:58;7.25;;;1.80;;
25111;SDS011;13092;51.996;4.458;2022-09-13T15:46:27;4.82;;;1.25;;
25111;SDS011;13092;51.996;4.458;2022-09-13T15:48:56;4.75;;;1.20;;
25111;SDS011;13092;51.996;4.458;2022-09-13T15:51:26;3.03;;;1.25;;
25111;SDS011;13092;51.996;4.458;2022-09-13T15:53:53;3.85;;;1.30;;
25111;SDS011;13092;51.996;4.458;2022-09-13T15:56:30;4.70;;;1.23;;
25111;SDS011;13092;51.996;4.458;2022-09-13T15:59:02;2.97;;;0.90;;
25111;SDS011;13092;51.996;4.458;2022-09-13T16:01:31;6.40;;;1.88;;
25111;SDS011;13092;51.996;4.458;2022-09-13T16:03:59;7.68;;;1.83;;
25111;SDS011;13092;51.996;4.458;2022-09-13T16:06:29;3.40;;;1.30;;